sensor_id;sensor_type;location;lat;lon;timestamp;P1;durP1;ratioP1;P2;durP2;ratioP2
43413;SDS011;29013;49.676;8.606;2022-10-13T00:01:36;10.45;;;6.81;;
43413;SDS011;29013;49.676;8.606;2022-10-13T00:07:03;11.94;;;6.95;;
43413;SDS011;29013;49.676;8.606;2022-10-13T00:12:30;10.9;;;6.95;;
43413;SDS011;29013;49.676;8.606;2022-10-13T00:17:55;11.93;;;7.04;;
43413;SDS011;29013;49.676;8.606;2022-10-13T00:23:21;12.65;;;7.21;;
43413;SDS011;29013;49.676;8.606;2022-10-13T00:28:48;11.13;;;6.38;;
43413;SDS011;29013;49.676;8.606;2022-10-13T00:34:13;12.84;;;6.45;;
43413;SDS011;29013;49.676;8.606;2022-10-13T00:39:40;11.39;;;6.91;;
43413;SDS011;29013;49.676;8.606;2022-10-13T00:45:09;11.39;;;6.75;;
43413;SDS011;29013;49.676;8.606;2022-10-13T00:50:42;11.79;;;6.44;;
43413;SDS011;29013;49.676;8.606;2022-10-13T00:56:05;12.99;;;6.17;;
43413;SDS011;29013;49.676;8.606;2022-10-13T01:01:31;9.55;;;6.4;;
43413;SDS011;29013;49.676;8.606;2022-10-13T01:06:56;10.96;;;6.64;;
43413;SDS011;29013;49.676;8.606;2022-10-13T01:12:22;10.81;;;6.38;;
43413;SDS011;29013;49.676;8.606;2022-10-13T01:17:52;12.04;;;7.38;;
43413;SDS011;29013;49.676;8.606;2022-10-13T01:29:27;10.98;;;6.77;;
43413;SDS011;29013;49.676;8.606;2022-10-13T01:35:04;9.26;;;6.22;;
43413;SDS011;29013;49.676;8.606;2022-10-13T01:40:26;10.22;;;6.66;;
43413;SDS011;29013;49.676;8.606;2022-10-13T01:45:51;12.63;;;6.83;;
43413;SDS011;29013;49.676;8.606;2022-10-13T01:51:15;9.93;;;6.32;;
43413;SDS011;29013;49.676;8.606;2022-10-13T01:56:41;11.21;;;6.96;;
43413;SDS011;29013;49.676;8.606;2022-10-13T02:02:16;15.72;;;6.75;;
43413;SDS011;29013;49.676;8.606;2022-10-13T02:07:43;16.1;;;7.27;;
43413;SDS011;29013;49.676;8.606;2022-10-13T02:13:06;14.27;;;7.1;;
43413;SDS011;29013;49.676;8.606;2022-10-13T02:18:33;12.32;;;7.5;;
43413;SDS011;29013;49.676;8.606;2022-10-13T02:23:57;10.94;;;6.88;;
43413;SDS011;29013;49.676;8.606;2022-10-13T02:29:25;12.08;;;6.38;;
43413;SDS011;29013;49.676;8.606;2022-10-13T02:34:52;14.22;;;7.27;;
43413;SDS011;29013;49.676;8.606;2022-10-13T02:40:19;12.18;;;6.99;;
43413;SDS011;29013;49.676;8.606;2022-10-13T02:45:40;11.67;;;6.98;;
43413;SDS011;29013;49.676;8.606;2022-10-13T02:51:07;13.67;;;7.93;;
43413;SDS011;29013;49.676;8.606;2022-10-13T02:56:34;11.87;;;7.49;;
43413;SDS011;29013;49.676;8.606;2022-10-13T03:02:01;11.15;;;6.77;;
43413;SDS011;29013;49.676;8.606;2022-10-13T03:07:25;11.61;;;7.06;;
43413;SDS011;29013;49.676;8.606;2022-10-13T03:12:52;9.45;;;6.08;;
43413;SDS011;29013;49.676;8.606;2022-10-13T03:18:14;11.17;;;6.18;;
43413;SDS011;29013;49.676;8.606;2022-10-13T03:23:39;9.88;;;6.18;;
43413;SDS011;29013;49.676;8.606;2022-10-13T03:29:09;14.06;;;7.26;;
43413;SDS011;29013;49.676;8.606;2022-10-13T03:34:35;11.61;;;7.03;;
43413;SDS011;29013;49.676;8.606;2022-10-13T03:40:06;10.24;;;6.29;;
43413;SDS011;29013;49.676;8.606;2022-10-13T03:45:29;11.82;;;7.18;;
43413;SDS011;29013;49.676;8.606;2022-10-13T03:50:53;11.98;;;7.34;;
43413;SDS011;29013;49.676;8.606;2022-10-13T03:56:15;12.28;;;7.21;;
43413;SDS011;29013;49.676;8.606;2022-10-13T04:01:39;14.89;;;7.39;;
43413;SDS011;29013;49.676;8.606;2022-10-13T04:07:07;14.16;;;7.61;;
43413;SDS011;29013;49.676;8.606;2022-10-13T04:12:34;13.07;;;7.11;;
43413;SDS011;29013;49.676;8.606;2022-10-13T04:18:04;13.66;;;7.63;;
43413;SDS011;29013;49.676;8.606;2022-10-13T04:23:30;15.84;;;7.95;;
43413;SDS011;29013;49.676;8.606;2022-10-13T04:28:58;12.36;;;7.54;;
43413;SDS011;29013;49.676;8.606;2022-10-13T04:34:21;14.29;;;8.19;;
43413;SDS011;29013;49.676;8.606;2022-10-13T04:39:49;17.78;;;8.75;;
43413;SDS011;29013;49.676;8.606;2022-10-13T04:45:16;16.26;;;8.35;;
43413;SDS011;29013;49.676;8.606;2022-10-13T04:50:42;17.88;;;8.37;;
43413;SDS011;29013;49.676;8.606;2022-10-13T04:56:08;18.51;;;8.53;;
43413;SDS011;29013;49.676;8.606;2022-10-13T05:01:36;16.57;;;8.33;;
43413;SDS011;29013;49.676;8.606;2022-10-13T05:07:01;19.15;;;8.64;;
43413;SDS011;29013;49.676;8.606;2022-10-13T05:12:27;17.02;;;8.76;;
43413;SDS011;29013;49.676;8.606;2022-10-13T05:17:55;15.06;;;7.22;;
43413;SDS011;29013;49.676;8.606;2022-10-13T05:23:21;15.76;;;7.44;;
43413;SDS011;29013;49.676;8.606;2022-10-13T05:28:45;13.69;;;8.13;;
43413;SDS011;29013;49.676;8.606;2022-10-13T05:34:09;15.38;;;7.95;;
43413;SDS011;29013;49.676;8.606;2022-10-13T05:39:37;14.29;;;7.79;;
43413;SDS011;29013;49.676;8.606;2022-10-13T05:45:00;16.27;;;7.43;;
43413;SDS011;29013;49.676;8.606;2022-10-13T05:50:28;17.92;;;8.47;;
43413;SDS011;29013;49.676;8.606;2022-10-13T05:55:55;13.77;;;8.21;;
43413;SDS011;29013;49.676;8.606;2022-10-13T06:01:22;15.3;;;8.08;;
43413;SDS011;29013;49.676;8.606;2022-10-13T06:06:48;17.32;;;8.6;;
43413;SDS011;29013;49.676;8.606;2022-10-13T06:12:15;15.68;;;8.14;;
43413;SDS011;29013;49.676;8.606;2022-10-13T06:17:45;15.14;;;8.24;;
43413;SDS011;29013;49.676;8.606;2022-10-13T06:23:21;14.27;;;8.56;;
43413;SDS011;29013;49.676;8.606;2022-10-13T06:28:47;13.36;;;8.07;;
43413;SDS011;29013;49.676;8.606;2022-10-13T06:34:11;15.76;;;8.44;;
43413;SDS011;29013;49.676;8.606;2022-10-13T06:39:36;15.38;;;8.73;;
43413;SDS011;29013;49.676;8.606;2022-10-13T06:45:00;17.88;;;8.76;;
43413;SDS011;29013;49.676;8.606;2022-10-13T06:50:23;14.7;;;9.11;;
43413;SDS011;29013;49.676;8.606;2022-10-13T06:55:50;16.62;;;9.04;;
43413;SDS011;29013;49.676;8.606;2022-10-13T07:01:14;14.78;;;9.19;;
43413;SDS011;29013;49.676;8.606;2022-10-13T07:06:39;18.01;;;8.89;;
43413;SDS011;29013;49.676;8.606;2022-10-13T07:12:07;15.96;;;9.73;;
43413;SDS011;29013;49.676;8.606;2022-10-13T07:17:31;17.23;;;9.85;;
43413;SDS011;29013;49.676;8.606;2022-10-13T07:22:56;18.32;;;9.58;;
43413;SDS011;29013;49.676;8.606;2022-10-13T07:28:24;18.19;;;10.2;;
43413;SDS011;29013;49.676;8.606;2022-10-13T07:33:49;18.21;;;10.05;;
43413;SDS011;29013;49.676;8.606;2022-10-13T07:39:13;18.4;;;10.2;;
43413;SDS011;29013;49.676;8.606;2022-10-13T07:44:34;19.7;;;10.81;;
43413;SDS011;29013;49.676;8.606;2022-10-13T07:50:01;20.64;;;11.14;;
43413;SDS011;29013;49.676;8.606;2022-10-13T07:55:26;23.58;;;11.49;;
43413;SDS011;29013;49.676;8.606;2022-10-13T08:00:56;21.99;;;11.36;;
43413;SDS011;29013;49.676;8.606;2022-10-13T08:06:27;19.76;;;11.58;;
43413;SDS011;29013;49.676;8.606;2022-10-13T08:11:54;22.4;;;11.62;;
43413;SDS011;29013;49.676;8.606;2022-10-13T08:17:15;23.21;;;11.32;;
43413;SDS011;29013;49.676;8.606;2022-10-13T08:22:37;21.35;;;11.22;;
43413;SDS011;29013;49.676;8.606;2022-10-13T08:27:58;23.08;;;12.13;;
43413;SDS011;29013;49.676;8.606;2022-10-13T08:33:25;23.13;;;12.15;;
43413;SDS011;29013;49.676;8.606;2022-10-13T08:38:51;21.66;;;11.92;;
43413;SDS011;29013;49.676;8.606;2022-10-13T08:44:20;20.03;;;11.53;;
43413;SDS011;29013;49.676;8.606;2022-10-13T08:49:43;20.2;;;11.95;;
43413;SDS011;29013;49.676;8.606;2022-10-13T08:55:12;22.78;;;12.17;;
43413;SDS011;29013;49.676;8.606;2022-10-13T09:00:41;26.35;;;13.22;;
43413;SDS011;29013;49.676;8.606;2022-10-13T09:06:10;22.89;;;12.82;;
43413;SDS011;29013;49.676;8.606;2022-10-13T09:11:38;26.3;;;13.68;;
43413;SDS011;29013;49.676;8.606;2022-10-13T09:17:14;26.59;;;13.79;;
43413;SDS011;29013;49.676;8.606;2022-10-13T09:22:40;24.9;;;12.8;;
43413;SDS011;29013;49.676;8.606;2022-10-13T09:28:12;26.83;;;14.15;;
43413;SDS011;29013;49.676;8.606;2022-10-13T09:33:35;28.81;;;13.8;;
43413;SDS011;29013;49.676;8.606;2022-10-13T09:39:06;26.36;;;13.73;;
43413;SDS011;29013;49.676;8.606;2022-10-13T09:44:31;25.47;;;13.51;;
43413;SDS011;29013;49.676;8.606;2022-10-13T09:50:00;27.71;;;13.49;;
43413;SDS011;29013;49.676;8.606;2022-10-13T09:55:30;24.02;;;12.65;;
43413;SDS011;29013;49.676;8.606;2022-10-13T10:00:51;23.47;;;12.68;;
43413;SDS011;29013;49.676;8.606;2022-10-13T10:06:17;25.36;;;12.58;;
43413;SDS011;29013;49.676;8.606;2022-10-13T10:11:44;21.57;;;11.97;;
43413;SDS011;29013;49.676;8.606;2022-10-13T10:17:14;21.63;;;12.03;;
43413;SDS011;29013;49.676;8.606;2022-10-13T10:22:42;20.38;;;11.62;;
43413;SDS011;29013;49.676;8.606;2022-10-13T10:28:13;19.89;;;11.39;;
43413;SDS011;29013;49.676;8.606;2022-10-13T10:33:46;19.06;;;10.48;;
43413;SDS011;29013;49.676;8.606;2022-10-13T10:39:15;19.69;;;10.47;;
43413;SDS011;29013;49.676;8.606;2022-10-13T10:44:38;17.12;;;9.71;;
43413;SDS011;29013;49.676;8.606;2022-10-13T10:50:04;18.52;;;10.41;;
43413;SDS011;29013;49.676;8.606;2022-10-13T10:55:36;17.58;;;10.67;;
43413;SDS011;29013;49.676;8.606;2022-10-13T11:01:01;19.12;;;10.26;;
43413;SDS011;29013;49.676;8.606;2022-10-13T11:06:25;18.76;;;10.52;;
43413;SDS011;29013;49.676;8.606;2022-10-13T11:11:50;18.03;;;10.38;;
43413;SDS011;29013;49.676;8.606;2022-10-13T11:17:16;16.81;;;10.25;;
43413;SDS011;29013;49.676;8.606;2022-10-13T11:22:37;18.79;;;11.14;;
43413;SDS011;29013;49.676;8.606;2022-10-13T11:33:57;17.12;;;9.13;;
43413;SDS011;29013;49.676;8.606;2022-10-13T11:45:02;17.03;;;9.76;;
43413;SDS011;29013;49.676;8.606;2022-10-13T11:50:31;15.73;;;9.73;;
43413;SDS011;29013;49.676;8.606;2022-10-13T11:55:56;16.52;;;9.17;;
43413;SDS011;29013;49.676;8.606;2022-10-13T12:01:19;15.67;;;8.84;;
43413;SDS011;29013;49.676;8.606;2022-10-13T12:06:41;14.28;;;9.38;;
43413;SDS011;29013;49.676;8.606;2022-10-13T12:12:10;13.38;;;8.18;;
43413;SDS011;29013;49.676;8.606;2022-10-13T12:17:33;13.09;;;8.2;;
43413;SDS011;29013;49.676;8.606;2022-10-13T12:22:54;14.05;;;8.07;;
43413;SDS011;29013;49.676;8.606;2022-10-13T12:28:21;14.78;;;7.79;;
43413;SDS011;29013;49.676;8.606;2022-10-13T12:33:54;12.62;;;7.26;;
43413;SDS011;29013;49.676;8.606;2022-10-13T12:39:22;11.62;;;7.78;;
43413;SDS011;29013;49.676;8.606;2022-10-13T12:44:49;14.13;;;8.76;;
43413;SDS011;29013;49.676;8.606;2022-10-13T12:56:01;11.88;;;8.51;;
43413;SDS011;29013;49.676;8.606;2022-10-13T13:01:30;11.42;;;8.03;;
43413;SDS011;29013;49.676;8.606;2022-10-13T13:06:57;12.94;;;8.92;;
43413;SDS011;29013;49.676;8.606;2022-10-13T13:12:26;12.6;;;8.86;;
43413;SDS011;29013;49.676;8.606;2022-10-13T13:17:49;14.39;;;9.57;;
43413;SDS011;29013;49.676;8.606;2022-10-13T13:23:14;15.75;;;8.7;;
43413;SDS011;29013;49.676;8.606;2022-10-13T13:28:40;11.52;;;8.46;;
43413;SDS011;29013;49.676;8.606;2022-10-13T13:34:08;13.02;;;8.2;;
43413;SDS011;29013;49.676;8.606;2022-10-13T13:39:34;14.36;;;8.99;;
43413;SDS011;29013;49.676;8.606;2022-10-13T13:45:00;13.24;;;8.12;;
43413;SDS011;29013;49.676;8.606;2022-10-13T13:50:30;13.17;;;8.57;;
43413;SDS011;29013;49.676;8.606;2022-10-13T13:55:51;13.75;;;8.9;;
43413;SDS011;29013;49.676;8.606;2022-10-13T14:01:19;13.43;;;8.88;;
43413;SDS011;29013;49.676;8.606;2022-10-13T14:06:40;14.63;;;8.83;;
43413;SDS011;29013;49.676;8.606;2022-10-13T14:12:08;11.31;;;8.26;;
43413;SDS011;29013;49.676;8.606;2022-10-13T14:17:33;15.07;;;8.55;;
43413;SDS011;29013;49.676;8.606;2022-10-13T14:22:58;15.67;;;8.53;;
43413;SDS011;29013;49.676;8.606;2022-10-13T14:28:25;13.65;;;8.82;;
43413;SDS011;29013;49.676;8.606;2022-10-13T14:33:51;15.05;;;9.07;;
43413;SDS011;29013;49.676;8.606;2022-10-13T14:39:20;12.52;;;9.11;;
43413;SDS011;29013;49.676;8.606;2022-10-13T14:44:48;13.52;;;8.2;;
43413;SDS011;29013;49.676;8.606;2022-10-13T14:50:15;11.14;;;8.22;;
43413;SDS011;29013;49.676;8.606;2022-10-13T14:55:44;12.83;;;8.61;;
43413;SDS011;29013;49.676;8.606;2022-10-13T15:01:08;14.75;;;8.25;;
43413;SDS011;29013;49.676;8.606;2022-10-13T15:06:30;13.7;;;8.27;;
43413;SDS011;29013;49.676;8.606;2022-10-13T15:11:51;12.89;;;8.35;;
43413;SDS011;29013;49.676;8.606;2022-10-13T15:17:17;13.2;;;8.28;;
43413;SDS011;29013;49.676;8.606;2022-10-13T15:22:42;12.36;;;7.85;;
43413;SDS011;29013;49.676;8.606;2022-10-13T15:28:10;11.46;;;7.54;;
43413;SDS011;29013;49.676;8.606;2022-10-13T15:33:37;12.97;;;8.19;;
43413;SDS011;29013;49.676;8.606;2022-10-13T15:39:06;14.35;;;7.89;;
43413;SDS011;29013;49.676;8.606;2022-10-13T15:44:35;12.25;;;7.47;;
43413;SDS011;29013;49.676;8.606;2022-10-13T15:49:59;11.26;;;6.99;;
43413;SDS011;29013;49.676;8.606;2022-10-13T15:55:26;14.53;;;8.19;;
43413;SDS011;29013;49.676;8.606;2022-10-13T16:00:50;10.41;;;6.98;;
43413;SDS011;29013;49.676;8.606;2022-10-13T16:06:16;14.62;;;7.9;;
43413;SDS011;29013;49.676;8.606;2022-10-13T16:11:41;11.61;;;7.2;;
43413;SDS011;29013;49.676;8.606;2022-10-13T16:17:03;10.84;;;7.39;;
43413;SDS011;29013;49.676;8.606;2022-10-13T16:22:27;14.31;;;8.14;;
43413;SDS011;29013;49.676;8.606;2022-10-13T16:27:51;18.03;;;9.52;;
43413;SDS011;29013;49.676;8.606;2022-10-13T16:33:24;15.01;;;8.87;;
43413;SDS011;29013;49.676;8.606;2022-10-13T16:38:50;19.13;;;10.87;;
43413;SDS011;29013;49.676;8.606;2022-10-13T16:44:14;17.92;;;10.8;;
43413;SDS011;29013;49.676;8.606;2022-10-13T16:49:37;17.47;;;10.17;;
43413;SDS011;29013;49.676;8.606;2022-10-13T16:55:06;16.44;;;9.84;;
43413;SDS011;29013;49.676;8.606;2022-10-13T17:00:28;19.06;;;10.77;;
43413;SDS011;29013;49.676;8.606;2022-10-13T17:05:53;18.31;;;10.32;;
43413;SDS011;29013;49.676;8.606;2022-10-13T17:11:20;18.13;;;9.97;;
43413;SDS011;29013;49.676;8.606;2022-10-13T17:16:43;19.76;;;10.53;;
43413;SDS011;29013;49.676;8.606;2022-10-13T17:22:08;16.14;;;10.4;;
43413;SDS011;29013;49.676;8.606;2022-10-13T17:27:31;22.75;;;14.33;;
43413;SDS011;29013;49.676;8.606;2022-10-13T17:32:56;21.87;;;13.53;;
43413;SDS011;29013;49.676;8.606;2022-10-13T17:38:21;17.47;;;11.41;;
43413;SDS011;29013;49.676;8.606;2022-10-13T17:43:43;20.99;;;11.62;;
43413;SDS011;29013;49.676;8.606;2022-10-13T17:49:09;19.4;;;11.79;;
43413;SDS011;29013;49.676;8.606;2022-10-13T17:54:31;17.52;;;11.5;;
43413;SDS011;29013;49.676;8.606;2022-10-13T17:59:56;20.89;;;12.33;;
43413;SDS011;29013;49.676;8.606;2022-10-13T18:05:19;21.95;;;12.76;;
43413;SDS011;29013;49.676;8.606;2022-10-13T18:10:41;20.91;;;12.26;;
43413;SDS011;29013;49.676;8.606;2022-10-13T18:16:04;19.59;;;11.61;;
43413;SDS011;29013;49.676;8.606;2022-10-13T18:21:26;21.26;;;11.9;;
43413;SDS011;29013;49.676;8.606;2022-10-13T18:26:47;17.45;;;11.27;;
43413;SDS011;29013;49.676;8.606;2022-10-13T18:32:09;18.17;;;11.75;;
43413;SDS011;29013;49.676;8.606;2022-10-13T18:37:34;19.33;;;11.18;;
43413;SDS011;29013;49.676;8.606;2022-10-13T18:43:01;19.99;;;11.93;;
43413;SDS011;29013;49.676;8.606;2022-10-13T18:48:26;18.77;;;10.94;;
43413;SDS011;29013;49.676;8.606;2022-10-13T18:53:51;20.25;;;12.1;;
43413;SDS011;29013;49.676;8.606;2022-10-13T18:59:15;17.74;;;12.3;;
43413;SDS011;29013;49.676;8.606;2022-10-13T19:04:40;20.46;;;12.16;;
43413;SDS011;29013;49.676;8.606;2022-10-13T19:10:08;19.66;;;12.07;;
43413;SDS011;29013;49.676;8.606;2022-10-13T19:15:33;22.16;;;11.8;;
43413;SDS011;29013;49.676;8.606;2022-10-13T19:20:59;19.89;;;11.72;;
43413;SDS011;29013;49.676;8.606;2022-10-13T19:26:25;19.24;;;11.64;;
43413;SDS011;29013;49.676;8.606;2022-10-13T19:31:50;21.42;;;12.39;;
43413;SDS011;29013;49.676;8.606;2022-10-13T19:37:15;13.49;;;7.01;;
43413;SDS011;29013;49.676;8.606;2022-10-13T19:42:42;11.74;;;7.26;;
43413;SDS011;29013;49.676;8.606;2022-10-13T19:48:05;12.77;;;7.32;;
43413;SDS011;29013;49.676;8.606;2022-10-13T19:53:32;11.15;;;7.43;;
43413;SDS011;29013;49.676;8.606;2022-10-13T19:58:59;11.02;;;8.04;;
43413;SDS011;29013;49.676;8.606;2022-10-13T20:04:21;14.17;;;8.13;;
43413;SDS011;29013;49.676;8.606;2022-10-13T20:09:48;13.59;;;8.39;;
43413;SDS011;29013;49.676;8.606;2022-10-13T20:15:15;10.8;;;7.49;;
43413;SDS011;29013;49.676;8.606;2022-10-13T20:20:42;10.78;;;7.09;;
43413;SDS011;29013;49.676;8.606;2022-10-13T20:26:06;11.01;;;6.67;;
43413;SDS011;29013;49.676;8.606;2022-10-13T20:31:28;10.63;;;6.88;;
43413;SDS011;29013;49.676;8.606;2022-10-13T20:36:53;12.34;;;7.38;;
43413;SDS011;29013;49.676;8.606;2022-10-13T20:42:20;13.56;;;7.43;;
43413;SDS011;29013;49.676;8.606;2022-10-13T20:47:48;11.91;;;7.7;;
43413;SDS011;29013;49.676;8.606;2022-10-13T20:53:13;14.83;;;7.67;;
43413;SDS011;29013;49.676;8.606;2022-10-13T20:58:38;13.25;;;8.59;;
43413;SDS011;29013;49.676;8.606;2022-10-13T21:04:05;15.96;;;9.51;;
43413;SDS011;29013;49.676;8.606;2022-10-13T21:09:34;15.22;;;9.79;;
43413;SDS011;29013;49.676;8.606;2022-10-13T21:15:01;16.87;;;10.29;;
43413;SDS011;29013;49.676;8.606;2022-10-13T21:20:25;18.24;;;10.28;;
43413;SDS011;29013;49.676;8.606;2022-10-13T21:25:52;16.1;;;10.06;;
43413;SDS011;29013;49.676;8.606;2022-10-13T21:31:21;15.86;;;9.41;;
43413;SDS011;29013;49.676;8.606;2022-10-13T21:36:42;16.09;;;8.98;;
43413;SDS011;29013;49.676;8.606;2022-10-13T21:42:06;15.91;;;9.29;;
43413;SDS011;29013;49.676;8.606;2022-10-13T21:47:34;14.66;;;8.43;;
43413;SDS011;29013;49.676;8.606;2022-10-13T21:52:55;13.95;;;9.31;;
43413;SDS011;29013;49.676;8.606;2022-10-13T21:58:17;13.1;;;8.55;;
43413;SDS011;29013;49.676;8.606;2022-10-13T22:03:43;12.12;;;8.44;;
43413;SDS011;29013;49.676;8.606;2022-10-13T22:09:06;17.32;;;9.79;;
43413;SDS011;29013;49.676;8.606;2022-10-13T22:14:33;17.36;;;10.53;;
43413;SDS011;29013;49.676;8.606;2022-10-13T22:19:59;16.94;;;9.92;;
43413;SDS011;29013;49.676;8.606;2022-10-13T22:25:25;15.9;;;10.37;;
43413;SDS011;29013;49.676;8.606;2022-10-13T22:30:52;18.54;;;10.28;;
43413;SDS011;29013;49.676;8.606;2022-10-13T22:36:20;18.57;;;10.16;;
43413;SDS011;29013;49.676;8.606;2022-10-13T22:41:48;16.05;;;9.69;;
43413;SDS011;29013;49.676;8.606;2022-10-13T22:47:12;16.7;;;10.28;;
43413;SDS011;29013;49.676;8.606;2022-10-13T22:52:39;17.15;;;9.9;;
43413;SDS011;29013;49.676;8.606;2022-10-13T22:58:03;21.66;;;9.83;;
43413;SDS011;29013;49.676;8.606;2022-10-13T23:03:29;15.53;;;9.8;;
43413;SDS011;29013;49.676;8.606;2022-10-13T23:08:53;17.24;;;10.0;;
43413;SDS011;29013;49.676;8.606;2022-10-13T23:14:14;17.22;;;9.59;;
43413;SDS011;29013;49.676;8.606;2022-10-13T23:19:38;16.04;;;9.99;;
43413;SDS011;29013;49.676;8.606;2022-10-13T23:24:59;19.84;;;10.48;;
43413;SDS011;29013;49.676;8.606;2022-10-13T23:30:26;15.24;;;10.2;;
43413;SDS011;29013;49.676;8.606;2022-10-13T23:35:53;16.45;;;10.59;;
43413;SDS011;29013;49.676;8.606;2022-10-13T23:41:20;15.7;;;9.56;;
43413;SDS011;29013;49.676;8.606;2022-10-13T23:46:44;18.44;;;10.29;;
43413;SDS011;29013;49.676;8.606;2022-10-13T23:52:07;15.24;;;9.76;;
43413;SDS011;29013;49.676;8.606;2022-10-13T23:57:32;12.78;;;8.92;;
